Time;durP1;ratioP1;P1;durP2;ratioP2;P2;SDS_P1;SDS_P2;PMS_P1;PMS_P2;Temp;Humidity;BMP_temperature;BMP_pressure;BME280_temperature;BME280_humidity;BME280_pressure;Samples;Min_cycle;Max_cycle;Signal;HPM_P1;HPM_P2
2023/05/12 00:02:15;;;;;;;15.00;10.83;;;;;;;;;;5016460;28;20646;-89
2023/05/12 00:04:42;;;;;;;14.97;11.80;;;;;;;;;;5035507;28;20332;-89
2023/05/12 00:07:09;;;;;;;15.37;11.03;;;;;;;;;;5036060;28;20206;-88
2023/05/12 00:09:37;;;;;;;17.93;10.63;;;;;;;;;;5035554;28;20310;-89
2023/05/12 00:12:05;;;;;;;15.57;11.00;;;;;;;;;;5035807;28;20210;-89
2023/05/12 00:14:32;;;;;;;16.37;10.97;;;;;;;;;;5035750;28;20719;-88
2023/05/12 00:16:59;;;;;;;17.00;10.93;;;;;;;;;;5035882;28;20614;-88
2023/05/12 00:19:26;;;;;;;15.33;11.20;;;;;;;;;;5035011;28;20238;-88
2023/05/12 00:21:53;;;;;;;15.90;10.43;;;;;;;;;;5035595;28;20218;-89
2023/05/12 00:24:20;;;;;;;15.13;10.50;;;;;;;;;;5034974;28;20202;-89
2023/05/12 00:26:48;;;;;;;14.60;9.73;;;;;;;;;;5036026;28;20213;-88
2023/05/12 00:29:15;;;;;;;12.87;9.83;;;;;;;;;;5034659;28;20229;-87
2023/05/12 00:31:43;;;;;;;13.83;9.33;;;;;;;;;;5035191;28;20215;-88
2023/05/12 00:34:10;;;;;;;13.97;9.60;;;;;;;;;;5034949;28;20207;-88
2023/05/12 00:36:37;;;;;;;11.40;9.00;;;;;;;;;;5035599;28;20213;-88
2023/05/12 00:39:04;;;;;;;11.70;8.93;;;;;;;;;;5034964;28;20234;-88
2023/05/12 00:41:31;;;;;;;12.10;9.17;;;;;;;;;;5041342;28;20199;-88
2023/05/12 00:43:59;;;;;;;12.10;8.67;;;;;;;;;;5036374;28;20563;-89
2023/05/12 00:46:27;;;;;;;10.87;8.40;;;;;;;;;;5035638;28;20230;-87
2023/05/12 00:48:54;;;;;;;11.47;8.60;;;;;;;;;;5035963;28;20227;-87
2023/05/12 00:51:21;;;;;;;13.30;8.77;;;;;;;;;;5034575;28;20230;-88
2023/05/12 00:53:48;;;;;;;10.40;8.07;;;;;;;;;;5034547;28;20718;-87
2023/05/12 00:56:16;;;;;;;11.40;8.53;;;;;;;;;;5034582;28;20238;-87
2023/05/12 00:58:44;;;;;;;10.97;8.70;;;;;;;;;;5034614;28;20721;-87
2023/05/12 01:01:12;;;;;;;11.03;8.43;;;;;;;;;;5031495;28;20235;-87
2023/05/12 01:03:39;;;;;;;11.67;8.77;;;;;;;;;;5038790;28;20573;-87
2023/05/12 01:06:11;;;;;;;10.47;7.90;;;;;;;;;;5034735;28;20380;-88
2023/05/12 01:08:40;;;;;;;11.23;8.00;;;;;;;;;;5028312;28;20195;-88
2023/05/12 01:11:07;;;;;;;11.10;8.57;;;;;;;;;;5039229;28;20234;-88
2023/05/12 01:13:34;;;;;;;11.70;8.80;;;;;;;;;;5025131;28;20200;-88
2023/05/12 01:16:03;;;;;;;12.60;8.03;;;;;;;;;;5036596;28;20242;-88
2023/05/12 01:18:33;;;;;;;12.07;8.87;;;;;;;;;;5016557;28;20214;-87
2023/05/12 01:21:00;;;;;;;12.63;8.57;;;;;;;;;;5019383;28;20227;-87
2023/05/12 01:23:28;;;;;;;14.00;9.43;;;;;;;;;;5026141;28;20207;-88
2023/05/12 01:25:55;;;;;;;14.03;9.00;;;;;;;;;;5019251;28;20239;-88
2023/05/12 01:28:24;;;;;;;11.97;8.37;;;;;;;;;;5014809;28;20215;-88
2023/05/12 01:30:51;;;;;;;11.57;8.63;;;;;;;;;;5014006;28;20239;-88
2023/05/12 01:33:18;;;;;;;13.10;8.80;;;;;;;;;;5014178;28;20211;-88
2023/05/12 01:35:46;;;;;;;11.00;8.47;;;;;;;;;;5013803;28;20239;-89
2023/05/12 01:38:13;;;;;;;11.60;8.40;;;;;;;;;;5014389;28;20237;-88
2023/05/12 01:40:40;;;;;;;10.43;7.60;;;;;;;;;;5013533;28;20243;-88
2023/05/12 07:45:06;;;;;;;6.30;5.70;;;;;;;;;;5032567;23;20261;-86
2023/05/12 07:47:34;;;;;;;5.97;5.30;;;;;;;;;;5025000;28;20217;-86
2023/05/12 07:50:01;;;;;;;6.20;5.60;;;;;;;;;;5014421;28;20234;-86
2023/05/12 07:52:28;;;;;;;6.00;5.40;;;;;;;;;;5021505;28;20222;-87
2023/05/12 07:54:56;;;;;;;6.27;5.70;;;;;;;;;;5025099;28;20231;-87
2023/05/12 07:57:23;;;;;;;6.03;5.53;;;;;;;;;;5020562;28;20289;-86
2023/05/12 07:59:50;;;;;;;5.97;5.37;;;;;;;;;;5024378;28;20208;-86
2023/05/12 08:02:19;;;;;;;5.13;4.63;;;;;;;;;;5027634;28;20264;-90
2023/05/12 08:04:46;;;;;;;7.93;4.63;;;;;;;;;;5026680;28;20276;-91
2023/05/12 08:07:14;;;;;;;5.23;4.77;;;;;;;;;;5023538;28;20716;-86
2023/05/12 08:09:41;;;;;;;5.47;4.90;;;;;;;;;;5024434;28;20222;-86
2023/05/12 08:12:08;;;;;;;5.90;4.97;;;;;;;;;;5022813;28;20237;-86
2023/05/12 08:14:36;;;;;;;6.40;4.90;;;;;;;;;;5024837;28;20254;-87
2023/05/12 08:17:06;;;;;;;5.67;4.97;;;;;;;;;;5029295;28;20230;-87
2023/05/12 08:19:35;;;;;;;5.17;4.73;;;;;;;;;;5019842;28;20203;-87
2023/05/12 08:22:03;;;;;;;6.63;4.50;;;;;;;;;;5012490;28;20333;-86
2023/05/12 08:24:30;;;;;;;5.33;4.87;;;;;;;;;;5027431;28;20746;-86
2023/05/12 08:26:57;;;;;;;5.33;4.83;;;;;;;;;;5027589;28;20230;-87
2023/05/12 08:29:24;;;;;;;7.53;5.00;;;;;;;;;;5025608;28;20229;-86
2023/05/12 08:31:52;;;;;;;5.53;5.03;;;;;;;;;;5025151;28;20598;-88
2023/05/12 08:34:19;;;;;;;7.60;4.83;;;;;;;;;;5023073;28;20243;-86
2023/05/12 08:36:47;;;;;;;6.43;4.73;;;;;;;;;;5027462;28;20249;-86
2023/05/12 08:39:17;;;;;;;5.10;4.60;;;;;;;;;;5036499;28;20211;-89
2023/05/12 08:41:45;;;;;;;6.13;4.23;;;;;;;;;;5029827;28;20226;-92
2023/05/12 08:44:16;;;;;;;5.80;4.33;;;;;;;;;;5036667;28;20326;-93
2023/05/12 08:46:46;;;;;;;5.20;4.70;;;;;;;;;;5034605;28;20254;-93
2023/05/12 08:49:17;;;;;;;4.47;4.00;;;;;;;;;;5035103;28;20300;-91
2023/05/12 08:51:45;;;;;;;5.20;4.23;;;;;;;;;;5033059;28;20235;-90
2023/05/12 08:54:17;;;;;;;4.67;4.27;;;;;;;;;;5033731;28;20708;-88
2023/05/12 08:56:45;;;;;;;5.47;4.03;;;;;;;;;;5034172;28;20234;-89
2023/05/12 08:59:13;;;;;;;11.13;4.20;;;;;;;;;;5035313;28;20206;-92
2023/05/12 09:01:46;;;;;;;4.80;3.80;;;;;;;;;;5036990;28;20257;-92
2023/05/12 09:04:16;;;;;;;4.03;3.63;;;;;;;;;;5037435;28;20261;-91
2023/05/12 09:07:03;;;;;;;3.83;3.53;;;;;;;;;;5023139;28;20241;-92
2023/05/12 09:09:39;;;;;;;4.30;3.90;;;;;;;;;;5037165;28;20198;-93
2023/05/12 09:12:13;;;;;;;4.40;3.90;;;;;;;;;;5037204;28;20238;-90
2023/05/12 09:15:06;;;;;;;4.33;3.93;;;;;;;;;;5033569;28;20751;-88
2023/05/12 09:17:33;;;;;;;6.57;3.80;;;;;;;;;;5034380;28;20555;-90
2023/05/12 09:20:01;;;;;;;4.30;3.90;;;;;;;;;;5039055;28;20217;-92
2023/05/12 09:22:29;;;;;;;4.37;3.97;;;;;;;;;;5039185;28;20226;-91
2023/05/12 09:24:57;;;;;;;7.90;4.10;;;;;;;;;;5038389;28;20218;-91
2023/05/12 09:27:25;;;;;;;4.83;4.43;;;;;;;;;;5038915;28;20245;-92
2023/05/12 09:29:52;;;;;;;5.30;4.10;;;;;;;;;;5039510;28;20227;-90
2023/05/12 09:32:30;;;;;;;4.73;4.10;;;;;;;;;;5039110;28;20238;-90
2023/05/12 09:34:57;;;;;;;6.63;4.60;;;;;;;;;;5040713;28;20227;-90
2023/05/12 09:37:31;;;;;;;4.50;4.10;;;;;;;;;;5039078;28;20234;-88
2023/05/12 09:40:03;;;;;;;3.83;3.53;;;;;;;;;;5038524;28;20198;-91
2023/05/12 09:42:31;;;;;;;4.63;4.20;;;;;;;;;;5039797;28;20305;-91
2023/05/12 09:45:02;;;;;;;5.53;4.80;;;;;;;;;;5051997;28;20233;-91
2023/05/12 09:47:34;;;;;;;7.30;5.00;;;;;;;;;;5060193;28;20226;-90
2023/05/12 09:50:02;;;;;;;4.63;4.23;;;;;;;;;;5060260;28;20213;-90
2023/05/12 09:52:31;;;;;;;4.47;4.07;;;;;;;;;;5047282;28;20215;-93
2023/05/12 09:55:07;;;;;;;4.07;3.77;;;;;;;;;;5040089;28;20762;-90
2023/05/12 09:57:36;;;;;;;4.97;4.20;;;;;;;;;;5039920;28;20249;-93
2023/05/12 10:00:04;;;;;;;5.00;4.50;;;;;;;;;;5039440;28;20213;-90
2023/05/12 10:02:31;;;;;;;4.67;4.23;;;;;;;;;;5040217;28;20213;-90
2023/05/12 10:05:01;;;;;;;4.87;4.07;;;;;;;;;;5037234;28;20230;-90
2023/05/12 10:07:29;;;;;;;4.77;4.30;;;;;;;;;;5037299;28;20219;-90
2023/05/12 10:09:59;;;;;;;6.20;4.60;;;;;;;;;;5037599;28;20206;-88
2023/05/12 10:12:28;;;;;;;5.50;4.93;;;;;;;;;;5038001;28;20254;-92
2023/05/12 10:14:56;;;;;;;5.43;4.70;;;;;;;;;;5037645;28;20223;-89
2023/05/12 10:17:23;;;;;;;6.53;4.90;;;;;;;;;;5035142;28;20253;-90
2023/05/12 10:19:51;;;;;;;5.80;4.57;;;;;;;;;;5017216;28;20222;-87
2023/05/12 10:22:20;;;;;;;7.77;5.07;;;;;;;;;;5036692;28;20234;-88
2023/05/12 10:24:47;;;;;;;6.53;5.50;;;;;;;;;;5031527;28;20704;-86
2023/05/12 10:27:16;;;;;;;5.03;3.93;;;;;;;;;;5031493;28;20723;-86
2023/05/12 10:29:45;;;;;;;4.53;4.10;;;;;;;;;;5031179;28;20234;-86
2023/05/12 10:32:12;;;;;;;4.40;3.63;;;;;;;;;;5022551;28;20234;-86
2023/05/12 10:34:42;;;;;;;3.67;3.27;;;;;;;;;;5032225;28;20254;-86
2023/05/12 10:37:11;;;;;;;4.33;3.57;;;;;;;;;;5023656;28;20273;-86
2023/05/12 10:39:38;;;;;;;3.87;3.43;;;;;;;;;;5031674;28;20214;-86
2023/05/12 10:42:07;;;;;;;3.80;3.50;;;;;;;;;;5029493;28;20227;-86
2023/05/12 10:44:34;;;;;;;4.17;3.77;;;;;;;;;;5031610;28;20242;-85
2023/05/12 10:47:03;;;;;;;4.30;4.00;;;;;;;;;;5031488;28;20239;-86
2023/05/12 10:49:36;;;;;;;4.50;4.10;;;;;;;;;;5031806;28;20745;-86
2023/05/12 10:52:03;;;;;;;4.10;3.70;;;;;;;;;;5030529;28;20238;-86
2023/05/12 10:54:30;;;;;;;6.80;3.70;;;;;;;;;;5030754;28;20241;-85
2023/05/12 10:57:00;;;;;;;3.73;3.43;;;;;;;;;;5032342;28;20302;-92
2023/05/12 10:59:27;;;;;;;3.80;3.50;;;;;;;;;;5036935;28;20221;-86
2023/05/12 11:01:59;;;;;;;4.20;3.80;;;;;;;;;;5029815;28;20885;-85
2023/05/12 11:04:39;;;;;;;4.33;3.93;;;;;;;;;;5023589;28;20290;-85
2023/05/12 11:07:08;;;;;;;4.63;4.13;;;;;;;;;;5015560;28;20289;-85
2023/05/12 11:09:36;;;;;;;4.63;4.20;;;;;;;;;;5022920;28;20214;-85
2023/05/12 11:12:03;;;;;;;3.93;3.53;;;;;;;;;;5029820;28;20246;-85
2023/05/12 11:14:30;;;;;;;4.00;3.63;;;;;;;;;;5030832;28;20724;-85
2023/05/12 11:16:57;;;;;;;3.50;3.23;;;;;;;;;;5025076;28;20241;-85
2023/05/12 11:19:25;;;;;;;5.43;3.43;;;;;;;;;;5029313;28;20217;-84
2023/05/12 11:21:54;;;;;;;5.03;3.40;;;;;;;;;;5030531;28;20222;-84
2023/05/12 11:24:21;;;;;;;3.30;3.00;;;;;;;;;;5021537;28;20241;-84
2023/05/12 11:26:50;;;;;;;3.40;3.10;;;;;;;;;;5023372;28;20786;-84
2023/05/12 11:29:18;;;;;;;3.63;3.40;;;;;;;;;;5031120;28;20214;-85
2023/05/12 11:31:47;;;;;;;4.20;2.80;;;;;;;;;;5018624;28;20262;-85
2023/05/12 11:34:14;;;;;;;2.93;2.73;;;;;;;;;;5029887;28;20277;-85
2023/05/12 11:36:42;;;;;;;2.63;2.27;;;;;;;;;;5027437;28;20266;-87
2023/05/12 11:39:16;;;;;;;5.27;2.50;;;;;;;;;;5028835;28;20210;-84
2023/05/12 11:41:43;;;;;;;2.73;2.37;;;;;;;;;;5022142;28;20604;-86
2023/05/12 11:44:14;;;;;;;2.60;2.40;;;;;;;;;;5030053;28;20235;-84
2023/05/12 11:46:41;;;;;;;2.57;2.37;;;;;;;;;;5028971;28;20651;-85
2023/05/12 11:49:11;;;;;;;2.37;2.20;;;;;;;;;;5024553;28;20273;-84
2023/05/12 11:51:42;;;;;;;3.93;2.20;;;;;;;;;;5027318;28;20619;-84
2023/05/12 11:54:10;;;;;;;2.40;2.20;;;;;;;;;;5027476;28;20241;-86
2023/05/12 11:56:38;;;;;;;2.40;2.20;;;;;;;;;;5032393;28;20238;-87
2023/05/12 11:59:05;;;;;;;2.47;2.30;;;;;;;;;;5029381;28;20195;-85
2023/05/12 12:01:33;;;;;;;2.77;2.20;;;;;;;;;;5025606;28;20859;-85
2023/05/12 12:04:00;;;;;;;2.70;2.40;;;;;;;;;;5031419;28;20230;-89
2023/05/12 12:06:27;;;;;;;2.80;2.60;;;;;;;;;;5032673;28;20676;-87
2023/05/12 12:08:55;;;;;;;2.53;2.13;;;;;;;;;;5036024;28;20268;-89
2023/05/12 12:11:22;;;;;;;2.13;2.03;;;;;;;;;;5035644;28;20249;-90
2023/05/12 12:13:55;;;;;;;1.92;1.83;;;;;;;;;;5030753;28;20226;-89
2023/05/12 12:16:23;;;;;;;1.95;1.80;;;;;;;;;;5038429;28;20728;-89
2023/05/12 12:18:50;;;;;;;2.30;1.80;;;;;;;;;;5036757;28;20210;-89
2023/05/12 12:21:17;;;;;;;1.98;1.88;;;;;;;;;;5035409;28;20230;-89
2023/05/12 12:23:44;;;;;;;3.00;1.75;;;;;;;;;;5038329;28;20209;-89
2023/05/12 12:26:15;;;;;;;1.80;1.70;;;;;;;;;;5037387;28;20241;-89
2023/05/12 12:28:42;;;;;;;5.35;1.80;;;;;;;;;;5029483;28;20293;-88
2023/05/12 12:31:17;;;;;;;1.70;1.60;;;;;;;;;;5022783;28;20325;-92
2023/05/12 12:33:44;;;;;;;3.33;2.00;;;;;;;;;;5032969;28;20210;-86
2023/05/12 12:36:11;;;;;;;2.38;1.75;;;;;;;;;;5033938;28;20647;-86
2023/05/12 12:38:38;;;;;;;3.20;2.10;;;;;;;;;;5024539;28;20611;-87
2023/05/12 12:41:06;;;;;;;2.72;2.00;;;;;;;;;;5020495;28;20591;-87
2023/05/12 12:43:34;;;;;;;3.08;2.38;;;;;;;;;;5034170;28;20211;-86
2023/05/12 12:46:01;;;;;;;2.00;1.90;;;;;;;;;;5034292;28;20226;-86
2023/05/12 12:48:30;;;;;;;1.70;1.60;;;;;;;;;;5028214;28;20635;-90
2023/05/12 12:50:58;;;;;;;2.22;1.80;;;;;;;;;;5033657;28;20227;-85
2023/05/12 12:53:25;;;;;;;2.47;1.85;;;;;;;;;;5018366;28;20212;-85
2023/05/12 12:55:52;;;;;;;3.08;1.70;;;;;;;;;;5024862;28;20254;-87
2023/05/12 12:58:19;;;;;;;3.38;1.70;;;;;;;;;;5033868;28;20221;-86
2023/05/12 13:00:46;;;;;;;2.10;1.90;;;;;;;;;;5025520;28;20595;-85
2023/05/12 13:03:13;;;;;;;3.55;1.80;;;;;;;;;;5033623;28;20233;-85
2023/05/12 13:05:41;;;;;;;4.10;1.90;;;;;;;;;;5032135;28;20234;-85
2023/05/12 13:08:09;;;;;;;1.70;1.60;;;;;;;;;;5019709;28;20211;-85
2023/05/12 13:10:36;;;;;;;2.08;1.90;;;;;;;;;;5013611;28;20652;-85
2023/05/12 13:13:03;;;;;;;1.83;1.73;;;;;;;;;;5019085;28;20552;-85
2023/05/12 13:15:31;;;;;;;1.73;1.63;;;;;;;;;;5028014;28;20238;-85
2023/05/12 13:17:58;;;;;;;2.17;1.55;;;;;;;;;;5026768;28;20210;-85
2023/05/12 13:20:25;;;;;;;1.80;1.70;;;;;;;;;;5032556;28;20314;-85
2023/05/12 13:22:54;;;;;;;1.98;1.58;;;;;;;;;;5029501;28;20210;-85
2023/05/12 13:25:21;;;;;;;1.67;1.58;;;;;;;;;;5028412;28;20231;-85
2023/05/12 13:27:48;;;;;;;1.70;1.60;;;;;;;;;;5017192;28;20696;-85
2023/05/12 13:30:15;;;;;;;1.63;1.52;;;;;;;;;;5017525;28;20218;-85
2023/05/12 13:32:42;;;;;;;2.95;1.77;;;;;;;;;;5021193;28;20755;-85
2023/05/12 13:35:09;;;;;;;1.50;1.40;;;;;;;;;;5027277;28;20705;-85
2023/05/12 13:37:37;;;;;;;1.92;1.58;;;;;;;;;;5033270;28;20199;-85
2023/05/12 13:40:06;;;;;;;1.88;1.52;;;;;;;;;;5032689;28;20202;-86
2023/05/12 13:42:34;;;;;;;1.27;1.20;;;;;;;;;;5031513;28;20210;-85
2023/05/12 13:45:01;;;;;;;1.42;1.33;;;;;;;;;;5025927;28;20230;-85
2023/05/12 13:47:28;;;;;;;3.05;1.90;;;;;;;;;;5025006;28;20223;-87
2023/05/12 13:49:56;;;;;;;3.60;1.67;;;;;;;;;;5041027;28;20653;-93
2023/05/12 13:52:23;;;;;;;4.63;1.98;;;;;;;;;;5041685;28;20235;-93
2023/05/12 13:54:50;;;;;;;1.70;1.50;;;;;;;;;;5037404;28;20227;-88
2023/05/12 13:57:19;;;;;;;1.58;1.48;;;;;;;;;;5025298;28;20262;-87
2023/05/12 13:59:46;;;;;;;3.60;1.90;;;;;;;;;;5025194;28;20211;-88
2023/05/12 14:02:13;;;;;;;1.85;1.75;;;;;;;;;;5032483;28;20226;-88
2023/05/12 14:04:40;;;;;;;2.03;1.90;;;;;;;;;;5033463;28;20230;-88
2023/05/12 14:07:07;;;;;;;1.60;1.50;;;;;;;;;;5026695;28;20238;-86
2023/05/12 14:09:35;;;;;;;2.92;1.88;;;;;;;;;;5021357;28;20211;-86
2023/05/12 14:12:03;;;;;;;1.85;1.75;;;;;;;;;;5025408;28;20525;-86
2023/05/12 14:14:31;;;;;;;1.95;1.50;;;;;;;;;;5032403;28;20230;-86
2023/05/12 14:16:58;;;;;;;1.60;1.50;;;;;;;;;;5025971;28;20243;-87
2023/05/12 14:19:25;;;;;;;1.60;1.50;;;;;;;;;;5021543;28;20203;-87
2023/05/12 14:21:52;;;;;;;1.77;1.67;;;;;;;;;;5031542;28;20234;-87
2023/05/12 14:24:19;;;;;;;1.83;1.50;;;;;;;;;;5017875;28;20235;-86
2023/05/12 14:26:47;;;;;;;2.00;1.80;;;;;;;;;;5031635;28;20238;-86
2023/05/12 14:29:14;;;;;;;2.25;1.80;;;;;;;;;;5035102;28;20207;-86
2023/05/12 14:31:42;;;;;;;2.97;1.60;;;;;;;;;;5024006;28;20239;-85
2023/05/12 14:34:10;;;;;;;1.65;1.52;;;;;;;;;;5026086;28;20725;-85
2023/05/12 14:36:37;;;;;;;3.38;1.80;;;;;;;;;;5028016;28;20226;-87
2023/05/12 14:39:07;;;;;;;2.83;1.70;;;;;;;;;;5020430;28;20218;-86
2023/05/12 14:41:34;;;;;;;2.03;1.60;;;;;;;;;;5029834;28;20230;-86
2023/05/12 14:44:01;;;;;;;1.40;1.30;;;;;;;;;;5026464;28;20922;-87
2023/05/12 14:46:28;;;;;;;2.45;1.70;;;;;;;;;;5019330;28;20736;-87
2023/05/12 14:48:57;;;;;;;1.67;1.58;;;;;;;;;;5032277;28;20215;-89
2023/05/12 14:51:24;;;;;;;1.60;1.50;;;;;;;;;;5023786;28;20230;-88
2023/05/12 14:53:51;;;;;;;2.65;1.50;;;;;;;;;;5031784;28;20230;-87
2023/05/12 14:56:18;;;;;;;1.40;1.40;;;;;;;;;;5031749;28;20241;-88
2023/05/12 14:58:45;;;;;;;1.40;1.30;;;;;;;;;;5013792;28;20226;-86
2023/05/12 15:01:12;;;;;;;1.52;1.35;;;;;;;;;;5025285;28;20234;-87
2023/05/12 15:03:39;;;;;;;2.85;1.58;;;;;;;;;;5023063;28;20199;-86
2023/05/12 15:06:07;;;;;;;1.50;1.40;;;;;;;;;;5019795;28;20242;-87
2023/05/12 15:08:35;;;;;;;1.42;1.40;;;;;;;;;;5027919;28;20676;-87
2023/05/12 15:11:02;;;;;;;1.55;1.45;;;;;;;;;;5024097;28;20321;-87
2023/05/12 15:13:29;;;;;;;1.67;1.55;;;;;;;;;;5023116;28;20231;-87
2023/05/12 15:15:56;;;;;;;1.73;1.63;;;;;;;;;;5023208;28;20235;-87
2023/05/12 15:18:23;;;;;;;1.60;1.50;;;;;;;;;;5031142;28;20221;-87
2023/05/12 15:54:39;;;;;;;1.70;1.60;;;;;;;;;;4959454;28;20239;-92
2023/05/12 15:57:08;;;;;;;1.60;1.50;;;;;;;;;;4969994;28;20248;-93
2023/05/12 15:59:36;;;;;;;2.28;1.73;;;;;;;;;;4974711;28;20253;-93
2023/05/12 16:02:03;;;;;;;1.55;1.45;;;;;;;;;;5010243;28;20234;-93
2023/05/12 16:04:30;;;;;;;1.60;1.50;;;;;;;;;;5034893;28;20227;-90
2023/05/12 16:06:57;;;;;;;1.48;1.40;;;;;;;;;;5033756;28;20260;-91
2023/05/12 16:09:26;;;;;;;1.75;1.65;;;;;;;;;;5034503;28;20215;-93
2023/05/12 16:11:54;;;;;;;1.75;1.65;;;;;;;;;;5034141;28;20751;-92
2023/05/12 16:14:22;;;;;;;2.10;1.60;;;;;;;;;;5033755;28;20226;-89
2023/05/12 16:16:53;;;;;;;1.80;1.70;;;;;;;;;;5027660;28;20239;-91
2023/05/12 16:19:20;;;;;;;2.58;1.90;;;;;;;;;;5033065;28;20202;-91
2023/05/12 16:21:47;;;;;;;3.25;1.63;;;;;;;;;;5029882;28;20265;-91
2023/05/12 16:24:14;;;;;;;2.55;1.90;;;;;;;;;;5032605;28;20234;-91
2023/05/12 16:26:41;;;;;;;1.98;1.88;;;;;;;;;;5033675;28;20238;-90
2023/05/12 16:29:12;;;;;;;7.45;1.92;;;;;;;;;;5034210;28;20215;-91
2023/05/12 16:31:41;;;;;;;2.05;1.55;;;;;;;;;;5033535;28;20719;-91
2023/05/12 16:34:08;;;;;;;3.85;1.90;;;;;;;;;;5028134;28;20235;-91
2023/05/12 16:36:35;;;;;;;1.50;1.45;;;;;;;;;;5030500;28;20241;-88
2023/05/12 16:39:02;;;;;;;5.10;1.80;;;;;;;;;;5034599;28;20314;-92
2023/05/12 16:41:29;;;;;;;1.73;1.63;;;;;;;;;;5035950;28;20614;-91
2023/05/12 16:43:56;;;;;;;1.83;1.73;;;;;;;;;;5036884;28;20602;-91
2023/05/12 16:46:24;;;;;;;1.98;1.88;;;;;;;;;;5029671;28;20231;-91
2023/05/12 16:48:53;;;;;;;3.13;1.70;;;;;;;;;;5035646;28;20214;-89
2023/05/12 16:51:20;;;;;;;1.83;1.70;;;;;;;;;;5035930;28;20239;-89
2023/05/12 16:53:47;;;;;;;1.65;1.55;;;;;;;;;;5033626;28;20226;-91
2023/05/12 16:56:15;;;;;;;1.75;1.65;;;;;;;;;;5017609;28;20235;-93
2023/05/12 16:58:43;;;;;;;1.67;1.58;;;;;;;;;;5039966;28;20206;-91
2023/05/12 17:01:10;;;;;;;2.08;1.50;;;;;;;;;;5036256;28;20257;-90
2023/05/12 17:03:38;;;;;;;1.90;1.80;;;;;;;;;;5029394;28;20207;-92
2023/05/12 17:06:07;;;;;;;1.90;1.70;;;;;;;;;;5030959;28;20226;-91
2023/05/12 17:08:35;;;;;;;3.22;1.67;;;;;;;;;;5036769;28;20211;-92
2023/05/12 17:11:02;;;;;;;1.88;1.77;;;;;;;;;;5030646;28;20226;-91
2023/05/12 17:13:29;;;;;;;1.50;1.40;;;;;;;;;;5031759;28;20227;-92
2023/05/12 17:15:56;;;;;;;1.58;1.48;;;;;;;;;;5038397;28;20704;-93
2023/05/12 17:18:24;;;;;;;1.98;1.85;;;;;;;;;;5031199;28;20735;-93
2023/05/12 17:20:51;;;;;;;3.58;2.67;;;;;;;;;;5034689;28;20237;-92
2023/05/12 17:23:20;;;;;;;2.30;1.90;;;;;;;;;;5037195;28;20210;-92
2023/05/12 17:25:47;;;;;;;1.80;1.70;;;;;;;;;;5037654;28;20238;-93
2023/05/12 17:28:14;;;;;;;3.17;1.63;;;;;;;;;;5038083;28;20652;-93
2023/05/12 17:30:41;;;;;;;1.77;1.67;;;;;;;;;;5037497;28;20661;-93
2023/05/12 17:33:11;;;;;;;1.63;1.52;;;;;;;;;;5037858;28;20230;-92
2023/05/12 17:35:38;;;;;;;1.80;1.50;;;;;;;;;;5036690;28;20230;-90
2023/05/12 17:38:06;;;;;;;2.05;1.70;;;;;;;;;;5026291;28;20206;-90
2023/05/12 17:40:34;;;;;;;1.90;1.80;;;;;;;;;;5031134;28;20341;-90
2023/05/12 17:43:01;;;;;;;1.90;1.73;;;;;;;;;;5035097;28;20221;-88
2023/05/12 17:45:29;;;;;;;2.03;1.90;;;;;;;;;;5032536;28;20344;-89
2023/05/12 17:47:56;;;;;;;1.70;1.60;;;;;;;;;;5028768;28;20210;-88
2023/05/12 17:50:23;;;;;;;1.75;1.65;;;;;;;;;;5034604;28;20238;-89
2023/05/12 17:52:50;;;;;;;2.13;1.92;;;;;;;;;;5016854;28;20256;-90
2023/05/12 17:55:17;;;;;;;6.93;1.80;;;;;;;;;;5015723;28;20235;-89
2023/05/12 17:57:45;;;;;;;2.47;1.90;;;;;;;;;;5022855;28;20206;-88
2023/05/12 18:00:14;;;;;;;3.17;1.80;;;;;;;;;;5032041;28;20223;-89
2023/05/12 18:02:41;;;;;;;1.80;1.70;;;;;;;;;;5036726;28;20237;-91
2023/05/12 18:05:09;;;;;;;1.90;1.58;;;;;;;;;;5036000;28;20227;-89
2023/05/12 18:07:36;;;;;;;4.10;1.80;;;;;;;;;;5037768;28;20205;-92
2023/05/12 18:10:03;;;;;;;2.00;1.60;;;;;;;;;;5036601;28;20210;-92
2023/05/12 18:12:30;;;;;;;1.83;1.73;;;;;;;;;;5035880;28;20655;-90
2023/05/12 18:14:59;;;;;;;1.95;1.85;;;;;;;;;;5034666;28;20751;-92
2023/05/12 18:17:27;;;;;;;2.05;1.95;;;;;;;;;;5035936;28;20262;-91
2023/05/12 18:19:54;;;;;;;1.60;1.50;;;;;;;;;;5038379;28;20209;-91
2023/05/12 18:22:21;;;;;;;4.32;2.05;;;;;;;;;;5034966;28;20288;-89
2023/05/12 18:24:49;;;;;;;2.15;1.83;;;;;;;;;;5032958;28;20310;-86
2023/05/12 18:27:16;;;;;;;2.10;1.67;;;;;;;;;;5032119;28;20241;-85
2023/05/12 18:29:43;;;;;;;2.13;1.75;;;;;;;;;;5032626;28;20547;-87
2023/05/12 18:32:12;;;;;;;7.72;1.88;;;;;;;;;;5032076;28;20235;-84
2023/05/12 18:34:40;;;;;;;3.63;1.95;;;;;;;;;;5032454;28;20223;-78
2023/05/12 18:37:07;;;;;;;2.70;1.80;;;;;;;;;;5031731;28;20317;-78
2023/05/12 18:39:34;;;;;;;2.13;2.00;;;;;;;;;;5032531;28;20217;-77
2023/05/12 18:42:01;;;;;;;3.55;1.85;;;;;;;;;;5031359;28;20648;-78
2023/05/12 18:44:28;;;;;;;2.77;2.00;;;;;;;;;;5031685;28;20223;-78
2023/05/12 18:46:55;;;;;;;9.93;2.10;;;;;;;;;;5032164;28;20237;-78
2023/05/12 18:49:24;;;;;;;2.67;2.10;;;;;;;;;;5032622;28;20241;-84
2023/05/12 18:51:51;;;;;;;4.43;2.35;;;;;;;;;;5031919;28;20293;-83
2023/05/12 18:54:18;;;;;;;2.00;1.90;;;;;;;;;;5032187;28;20242;-84
2023/05/12 18:56:46;;;;;;;2.10;1.80;;;;;;;;;;5031855;28;20242;-84
2023/05/12 18:59:13;;;;;;;2.00;1.90;;;;;;;;;;5032218;28;20668;-84
2023/05/12 19:01:40;;;;;;;2.23;2.03;;;;;;;;;;5031845;28;20775;-84
2023/05/12 19:04:07;;;;;;;2.23;2.03;;;;;;;;;;5031959;28;20230;-84
2023/05/12 19:06:36;;;;;;;2.00;1.90;;;;;;;;;;5031718;28;20238;-84
2023/05/12 19:09:03;;;;;;;3.90;1.93;;;;;;;;;;5032217;28;20257;-85
2023/05/12 19:11:30;;;;;;;2.93;2.20;;;;;;;;;;5031902;28;20239;-85
2023/05/12 19:13:57;;;;;;;2.10;1.90;;;;;;;;;;5032252;28;20230;-85
2023/05/12 19:16:24;;;;;;;2.20;2.00;;;;;;;;;;5031815;28;20238;-83
2023/05/12 19:18:52;;;;;;;2.17;2.00;;;;;;;;;;5032492;28;20294;-84
2023/05/12 19:21:19;;;;;;;2.90;2.03;;;;;;;;;;5031205;28;20246;-83
2023/05/12 19:23:47;;;;;;;2.07;1.93;;;;;;;;;;5031910;28;20199;-83
2023/05/12 19:26:15;;;;;;;2.30;2.10;;;;;;;;;;5027345;28;20238;-82
2023/05/12 19:28:42;;;;;;;2.20;2.10;;;;;;;;;;5031767;28;20190;-82
2023/05/12 19:31:09;;;;;;;2.20;2.10;;;;;;;;;;5031188;28;20249;-83
2023/05/12 19:33:36;;;;;;;2.13;1.93;;;;;;;;;;5031732;28;20226;-83
2023/05/12 19:36:03;;;;;;;2.97;2.00;;;;;;;;;;5031354;28;20230;-83
2023/05/12 19:38:30;;;;;;;2.50;2.30;;;;;;;;;;5032115;28;20217;-85
2023/05/12 19:40:58;;;;;;;2.20;1.97;;;;;;;;;;5031408;28;20230;-84
2023/05/12 19:43:25;;;;;;;2.40;2.20;;;;;;;;;;5031640;28;20680;-84
2023/05/12 19:45:54;;;;;;;2.20;2.00;;;;;;;;;;5047199;28;20320;-84
2023/05/12 19:48:21;;;;;;;1.87;1.77;;;;;;;;;;5051767;28;20218;-83
2023/05/12 19:50:48;;;;;;;3.30;2.30;;;;;;;;;;5051394;28;20234;-83
2023/05/12 19:53:16;;;;;;;2.30;2.20;;;;;;;;;;5051668;28;20225;-83
2023/05/12 19:55:44;;;;;;;1.93;1.83;;;;;;;;;;5050510;28;20234;-84
2023/05/12 19:58:12;;;;;;;2.47;2.27;;;;;;;;;;5051715;28;20210;-84
2023/05/12 20:00:39;;;;;;;2.33;2.17;;;;;;;;;;5036086;28;20233;-84
2023/05/12 20:03:06;;;;;;;2.60;2.40;;;;;;;;;;5031749;28;20214;-86
2023/05/12 20:05:36;;;;;;;3.47;2.90;;;;;;;;;;5031039;28;20234;-87
2023/05/12 20:08:03;;;;;;;3.00;2.67;;;;;;;;;;5031651;28;20245;-86
2023/05/12 20:10:30;;;;;;;3.47;2.70;;;;;;;;;;5030585;28;20234;-85
2023/05/12 20:12:57;;;;;;;4.43;2.70;;;;;;;;;;5031921;28;20206;-85
2023/05/12 20:15:26;;;;;;;3.67;2.57;;;;;;;;;;5031732;28;20230;-85
2023/05/12 20:17:53;;;;;;;3.17;2.87;;;;;;;;;;5035173;28;20214;-84
2023/05/12 20:20:20;;;;;;;3.63;2.87;;;;;;;;;;5034061;28;20202;-85
2023/05/12 20:22:49;;;;;;;4.90;4.33;;;;;;;;;;5034914;28;20209;-85
2023/05/12 20:25:16;;;;;;;6.80;4.73;;;;;;;;;;5034625;28;20238;-85
2023/05/12 20:27:44;;;;;;;3.97;3.67;;;;;;;;;;5035713;28;20205;-86
2023/05/12 20:30:12;;;;;;;3.87;3.47;;;;;;;;;;5039196;28;20236;-85
2023/05/12 20:32:42;;;;;;;3.80;3.50;;;;;;;;;;5035591;28;20218;-84
2023/05/12 20:35:09;;;;;;;4.30;3.90;;;;;;;;;;5034086;28;20236;-85
2023/05/12 20:37:37;;;;;;;4.60;3.77;;;;;;;;;;5035084;28;20210;-84
2023/05/12 20:40:05;;;;;;;3.60;3.30;;;;;;;;;;5034455;28;20672;-85
2023/05/12 20:42:33;;;;;;;4.83;3.87;;;;;;;;;;5035197;28;20210;-84
2023/05/12 20:45:00;;;;;;;4.00;3.60;;;;;;;;;;5035105;28;20246;-84
2023/05/12 20:47:29;;;;;;;5.13;3.80;;;;;;;;;;5033204;28;20238;-84
2023/05/12 20:49:59;;;;;;;3.10;2.90;;;;;;;;;;5035366;28;20211;-84
2023/05/12 20:52:27;;;;;;;3.70;3.40;;;;;;;;;;5034004;28;20708;-84
2023/05/12 20:54:57;;;;;;;3.37;3.00;;;;;;;;;;5033108;28;20262;-84
2023/05/12 20:57:25;;;;;;;3.73;3.23;;;;;;;;;;5032402;28;20235;-84
2023/05/12 20:59:52;;;;;;;3.70;3.40;;;;;;;;;;5032643;28;20210;-83
2023/05/12 21:02:19;;;;;;;5.33;4.83;;;;;;;;;;5042658;28;20261;-84
2023/05/12 21:04:46;;;;;;;4.77;3.80;;;;;;;;;;5055091;28;20225;-84
2023/05/12 21:07:15;;;;;;;5.13;3.30;;;;;;;;;;5055327;28;20241;-84
2023/05/12 21:09:42;;;;;;;3.67;3.37;;;;;;;;;;5050389;28;20203;-84
2023/05/12 21:12:09;;;;;;;3.27;3.07;;;;;;;;;;5040654;28;20253;-84
2023/05/12 21:14:40;;;;;;;3.27;2.97;;;;;;;;;;5041361;28;20226;-84
2023/05/12 21:17:07;;;;;;;3.83;3.53;;;;;;;;;;5038128;28;20243;-84
2023/05/12 21:19:35;;;;;;;3.73;3.20;;;;;;;;;;5048531;28;20187;-84
2023/05/12 21:22:02;;;;;;;4.53;2.93;;;;;;;;;;5038187;28;20219;-83